createdAt,value
2019-03-27T00:02:08.673Z,51.20
2019-03-27T00:04:40.309Z,51.00
2019-03-27T00:07:08.818Z,52.10
2019-03-27T00:09:37.052Z,52.10
2019-03-27T00:12:07.154Z,52.20
2019-03-27T00:14:35.396Z,52.30
2019-03-27T00:17:04.252Z,52.50
2019-03-27T00:19:34.225Z,52.50
2019-03-27T00:22:02.481Z,52.30
2019-03-27T00:24:31.077Z,52.40
2019-03-27T00:26:59.345Z,52.70
2019-03-27T00:29:27.802Z,52.90
2019-03-27T00:31:56.119Z,53.00
2019-03-27T00:34:24.595Z,53.10
2019-03-27T00:36:53.161Z,52.90
2019-03-27T00:39:24.446Z,52.60
2019-03-27T00:42:00.112Z,52.30
2019-03-27T00:44:28.377Z,52.50
2019-03-27T00:46:56.650Z,52.70
2019-03-27T00:49:26.535Z,52.70
2019-03-27T00:51:54.775Z,52.20
2019-03-27T00:54:23.381Z,52.50
2019-03-27T00:56:51.774Z,52.50
2019-03-27T00:59:21.706Z,52.50
2019-03-27T01:01:49.947Z,52.70
2019-03-27T01:04:18.232Z,52.40
2019-03-27T01:06:46.471Z,52.30
2019-03-27T01:09:14.709Z,52.40
2019-03-27T01:11:42.964Z,52.70
2019-03-27T01:14:11.213Z,52.80
2019-03-27T01:16:39.453Z,52.70
2019-03-27T01:19:07.779Z,52.80
2019-03-27T01:21:36.030Z,52.70
2019-03-27T01:24:04.262Z,53.10
2019-03-27T01:26:32.619Z,53.00
2019-03-27T01:29:03.614Z,53.20
2019-03-27T01:31:32.590Z,53.00
2019-03-27T01:34:01.275Z,53.00
2019-03-27T01:36:29.505Z,53.10
2019-03-27T01:38:57.754Z,52.90
2019-03-27T01:41:26.352Z,53.00
2019-03-27T01:43:54.591Z,53.00
2019-03-27T01:46:22.832Z,53.00
2019-03-27T01:48:51.081Z,52.80
2019-03-27T01:51:19.327Z,53.10
2019-03-27T01:53:47.566Z,53.40
2019-03-27T01:56:16.258Z,53.50
2019-03-27T01:58:44.485Z,53.60
2019-03-27T02:01:12.737Z,53.80
2019-03-27T02:03:42.816Z,53.60
2019-03-27T02:06:11.117Z,53.80
2019-03-27T02:08:39.379Z,54.00
2019-03-27T02:11:08.051Z,53.60
2019-03-27T02:13:36.299Z,53.80
2019-03-27T02:16:17.251Z,53.40
2019-03-27T02:18:45.504Z,53.70
2019-03-27T02:21:13.785Z,53.60
2019-03-27T02:23:43.145Z,53.60
2019-03-27T02:26:11.375Z,53.40
2019-03-27T02:28:39.659Z,53.60
2019-03-27T02:31:07.921Z,54.00
2019-03-27T02:33:36.211Z,53.50
2019-03-27T02:36:04.639Z,53.70
2019-03-27T02:38:33.191Z,53.60
2019-03-27T02:41:01.508Z,53.60
2019-03-27T02:43:29.783Z,53.80
2019-03-27T02:45:58.074Z,53.70
2019-03-27T02:48:26.298Z,53.90
2019-03-27T02:50:54.537Z,53.80
2019-03-27T02:53:22.850Z,53.90
2019-03-27T02:55:51.169Z,53.80
2019-03-27T02:58:19.466Z,54.10
2019-03-27T03:00:49.619Z,53.90
2019-03-27T03:03:17.914Z,53.80
2019-03-27T03:05:46.146Z,53.90
2019-03-27T03:08:14.408Z,53.80
2019-03-27T03:10:45.491Z,54.90
2019-03-27T03:13:12.614Z,53.80
2019-03-27T03:15:40.885Z,53.70
2019-03-27T03:18:09.127Z,53.70
2019-03-27T03:20:37.391Z,54.30
2019-03-27T03:23:05.676Z,54.40
2019-03-27T03:25:33.911Z,54.40
2019-03-27T03:28:02.148Z,54.10
2019-03-27T03:30:30.514Z,54.40
2019-03-27T03:32:59.171Z,54.30
2019-03-27T03:35:28.167Z,54.40
2019-03-27T03:37:59.301Z,54.30
2019-03-27T03:40:27.545Z,53.90
2019-03-27T03:42:55.784Z,54.00
2019-03-27T03:45:24.665Z,54.00
2019-03-27T03:47:52.899Z,53.90
2019-03-27T03:50:40.878Z,53.80
2019-03-27T03:53:10.564Z,53.90
2019-03-27T03:55:39.088Z,54.20
2019-03-27T03:58:09.243Z,54.10
2019-03-27T04:00:37.655Z,54.00
2019-03-27T04:03:06.064Z,54.10
2019-03-27T04:05:34.529Z,54.00
2019-03-27T04:08:02.776Z,54.00
2019-03-27T04:10:31.011Z,54.10
2019-03-27T04:12:59.351Z,53.80
2019-03-27T04:15:27.594Z,54.10
2019-03-27T04:17:55.823Z,54.20
2019-03-27T04:20:24.080Z,54.30
2019-03-27T04:22:52.356Z,54.20
2019-03-27T04:25:20.965Z,54.00
2019-03-27T04:27:50.113Z,53.90
2019-03-27T04:30:18.353Z,53.80
2019-03-27T04:32:46.584Z,53.70
2019-03-27T04:35:15.257Z,53.70
2019-03-27T04:37:43.501Z,53.80
2019-03-27T04:40:11.737Z,53.50
2019-03-27T04:42:40.029Z,53.50
2019-03-27T04:45:08.315Z,53.50
2019-03-27T04:47:36.559Z,53.70
2019-03-27T04:50:08.003Z,53.50
2019-03-27T04:52:36.243Z,52.90
2019-03-27T04:55:05.615Z,52.70
2019-03-27T04:57:33.944Z,52.90
2019-03-27T05:00:02.557Z,52.60
2019-03-27T05:02:31.095Z,52.60
2019-03-27T05:04:59.811Z,52.40
2019-03-27T05:07:28.051Z,52.60
2019-03-27T05:09:56.292Z,52.70
2019-03-27T05:12:24.749Z,52.60
2019-03-27T05:14:52.987Z,52.70
2019-03-27T05:17:21.226Z,52.70
2019-03-27T05:19:49.568Z,52.50
2019-03-27T05:22:17.815Z,52.30
2019-03-27T05:24:47.386Z,52.40
2019-03-27T05:27:16.058Z,52.50
2019-03-27T05:29:44.308Z,52.90
2019-03-27T05:32:12.542Z,53.00
2019-03-27T05:34:41.082Z,52.90
2019-03-27T05:37:09.328Z,52.50
2019-03-27T05:39:39.557Z,52.90
2019-03-27T05:42:10.367Z,52.60
2019-03-27T05:44:38.621Z,52.80
2019-03-27T05:47:11.858Z,52.60
2019-03-27T05:49:40.114Z,52.30
2019-03-27T05:52:08.360Z,52.40
2019-03-27T05:54:36.602Z,52.40
2019-03-27T05:57:24.391Z,52.50
2019-03-27T05:59:52.719Z,52.30
2019-03-27T06:02:21.004Z,51.90
2019-03-27T06:04:49.578Z,51.80
2019-03-27T06:07:17.824Z,51.80
2019-03-27T06:09:46.063Z,51.90
2019-03-27T06:12:14.424Z,52.30
2019-03-27T06:14:42.663Z,52.10
2019-03-27T06:17:10.903Z,52.00
2019-03-27T06:19:39.262Z,51.80
2019-03-27T06:22:07.503Z,51.80
2019-03-27T06:24:35.769Z,51.80
2019-03-27T06:27:04.538Z,51.20
2019-03-27T06:29:35.002Z,51.00
2019-03-27T06:32:03.234Z,51.10
2019-03-27T06:34:31.583Z,50.90
2019-03-27T06:36:59.826Z,50.90
2019-03-27T06:39:28.059Z,51.10
2019-03-27T06:41:56.999Z,51.20
2019-03-27T06:44:25.738Z,50.80
2019-03-27T06:46:53.998Z,50.80
2019-03-27T06:49:22.620Z,50.20
2019-03-27T06:51:51.199Z,50.00
2019-03-27T06:54:19.441Z,50.20
2019-03-27T06:56:47.842Z,49.70
2019-03-27T06:59:16.076Z,49.90
2019-03-27T07:01:44.313Z,49.90
2019-03-27T07:04:12.913Z,49.20
2019-03-27T07:06:41.135Z,48.90
2019-03-27T07:09:09.466Z,49.50
2019-03-27T07:11:37.734Z,48.70
2019-03-27T07:14:05.983Z,48.70
2019-03-27T07:16:34.571Z,48.20
2019-03-27T07:19:03.611Z,48.40
2019-03-27T07:21:31.860Z,48.90
2019-03-27T07:24:00.175Z,48.70
2019-03-27T07:26:28.439Z,48.70
2019-03-27T07:28:57.243Z,48.60
2019-03-27T07:31:25.484Z,48.40
2019-03-27T07:33:54.018Z,48.60
2019-03-27T07:36:22.258Z,48.40
2019-03-27T07:38:50.808Z,48.40
2019-03-27T07:41:19.554Z,48.40
2019-03-27T07:43:48.088Z,47.60
2019-03-27T07:46:16.331Z,46.10
2019-03-27T07:48:53.661Z,45.20
2019-03-27T07:51:14.571Z,46.20
2019-03-27T07:53:42.833Z,46.60
2019-03-27T07:56:11.437Z,46.60
2019-03-27T07:58:39.683Z,44.80
2019-03-27T08:01:07.934Z,44.90
2019-03-27T08:03:36.567Z,44.60
2019-03-27T08:06:05.077Z,44.90
2019-03-27T08:08:33.332Z,45.30
2019-03-27T08:11:01.587Z,45.70
2019-03-27T08:13:29.873Z,44.60
2019-03-27T08:15:59.408Z,44.60
2019-03-27T08:18:27.808Z,43.60
2019-03-27T08:20:58.810Z,43.60
2019-03-27T08:23:29.838Z,42.80
2019-03-27T08:26:01.304Z,42.80
2019-03-27T08:28:29.542Z,42.90
2019-03-27T08:30:58.277Z,42.10
2019-03-27T08:33:26.605Z,42.00
2019-03-27T08:35:54.855Z,41.50
2019-03-27T08:38:23.103Z,41.60
2019-03-27T08:40:51.460Z,41.60
2019-03-27T08:43:21.399Z,41.50
2019-03-27T08:45:49.944Z,41.40
2019-03-27T08:48:18.242Z,41.40
2019-03-27T08:50:48.130Z,41.60
2019-03-27T08:53:18.002Z,41.80
2019-03-27T08:55:46.370Z,42.00
2019-03-27T08:58:14.607Z,42.70
2019-03-27T09:00:48.145Z,42.60
2019-03-27T09:03:16.581Z,41.90
2019-03-27T09:05:45.158Z,41.60
2019-03-27T09:08:13.794Z,41.20
2019-03-27T09:10:42.551Z,40.90
2019-03-27T09:13:10.796Z,40.80
2019-03-27T09:15:39.051Z,41.50
2019-03-27T09:18:16.949Z,41.00
2019-03-27T09:20:47.603Z,40.50
2019-03-27T09:23:18.122Z,40.40
2019-03-27T09:26:05.661Z,40.30
2019-03-27T09:28:35.544Z,40.30
2019-03-27T09:31:14.339Z,40.40
2019-03-27T09:33:51.967Z,41.50
2019-03-27T09:36:20.293Z,41.50
2019-03-27T09:38:48.559Z,41.10
2019-03-27T09:41:16.805Z,40.80
2019-03-27T09:43:45.112Z,39.90
2019-03-27T09:46:13.400Z,40.40
2019-03-27T09:48:41.637Z,40.00
2019-03-27T09:51:09.976Z,39.80
2019-03-27T09:53:40.026Z,39.40
2019-03-27T09:56:19.018Z,38.90
2019-03-27T09:58:43.596Z,38.30
2019-03-27T10:01:11.847Z,39.60
2019-03-27T10:03:42.799Z,39.90
2019-03-27T10:06:11.092Z,40.60
2019-03-27T10:08:39.344Z,39.00
2019-03-27T10:11:07.589Z,39.20
2019-03-27T10:13:37.512Z,39.30
2019-03-27T10:16:05.771Z,39.70
2019-03-27T10:18:35.644Z,39.80
2019-03-27T10:21:06.079Z,39.30
2019-03-27T10:23:34.349Z,39.80
2019-03-27T10:26:02.644Z,39.70
2019-03-27T10:28:32.576Z,39.20
2019-03-27T10:31:00.838Z,39.50
2019-03-27T10:33:29.062Z,39.70
2019-03-27T10:35:57.540Z,40.00
2019-03-27T10:38:25.789Z,39.90
2019-03-27T10:40:54.292Z,40.40
2019-03-27T10:43:22.567Z,40.50
2019-03-27T10:45:50.842Z,40.50
2019-03-27T10:48:19.074Z,40.30
2019-03-27T10:50:47.755Z,41.20
2019-03-27T10:53:15.991Z,41.30
2019-03-27T10:55:44.563Z,42.50
2019-03-27T10:58:12.925Z,43.90
2019-03-27T11:00:41.160Z,44.10
2019-03-27T11:03:09.407Z,44.10
2019-03-27T11:05:37.723Z,44.10
2019-03-27T11:08:06.022Z,44.60
2019-03-27T11:10:34.270Z,45.10
2019-03-27T11:13:02.587Z,45.30
2019-03-27T11:15:30.845Z,45.40
2019-03-27T11:17:59.101Z,45.30
2019-03-27T11:20:31.213Z,44.80
2019-03-27T11:22:57.495Z,46.30
2019-03-27T11:25:25.727Z,46.10
2019-03-27T11:27:53.995Z,46.40
2019-03-27T11:30:25.507Z,47.80
2019-03-27T11:32:53.735Z,48.40
2019-03-27T11:35:21.992Z,48.50
2019-03-27T11:37:51.267Z,48.80
2019-03-27T11:40:19.522Z,49.00
2019-03-27T11:42:47.787Z,49.10
2019-03-27T11:45:16.370Z,49.60
2019-03-27T11:47:53.951Z,49.90
2019-03-27T11:50:25.476Z,49.60
2019-03-27T11:52:58.304Z,50.00
2019-03-27T11:55:31.409Z,51.20
2019-03-27T11:58:00.591Z,50.80
2019-03-27T12:00:28.826Z,51.80
2019-03-27T12:02:57.079Z,52.00
2019-03-27T12:05:25.710Z,54.10
2019-03-27T12:07:53.951Z,54.60
2019-03-27T12:10:22.185Z,54.30
2019-03-27T12:12:50.458Z,55.20
2019-03-27T12:15:27.914Z,54.30
2019-03-27T12:17:56.240Z,54.50
2019-03-27T12:20:24.473Z,52.90
2019-03-27T12:22:57.977Z,52.80
2019-03-27T12:25:22.791Z,52.30
2019-03-27T12:27:51.051Z,53.10
2019-03-27T12:30:19.296Z,54.90
2019-03-27T12:32:47.598Z,54.30
2019-03-27T12:35:15.844Z,54.40
2019-03-27T12:37:44.100Z,53.50
2019-03-27T12:40:13.933Z,53.60
2019-03-27T12:42:42.433Z,53.20
2019-03-27T12:45:10.671Z,53.80
2019-03-27T12:47:38.939Z,54.10
2019-03-27T12:50:10.126Z,53.20
2019-03-27T12:52:38.433Z,53.30
2019-03-27T12:55:09.669Z,53.40
2019-03-27T12:57:38.276Z,53.70
2019-03-27T13:00:09.951Z,53.80
2019-03-27T13:02:38.502Z,53.80
2019-03-27T13:05:07.312Z,54.20
2019-03-27T13:07:49.118Z,54.80
2019-03-27T13:10:05.834Z,54.70
2019-03-27T13:12:38.731Z,54.80
2019-03-27T13:15:11.516Z,55.60
2019-03-27T13:17:39.871Z,54.90
2019-03-27T13:20:09.281Z,55.50
2019-03-27T13:22:38.378Z,56.60
2019-03-27T13:25:07.143Z,55.50
2019-03-27T13:27:35.389Z,56.10
2019-03-27T13:30:05.867Z,57.50
2019-03-27T13:32:34.149Z,56.90
2019-03-27T13:35:02.655Z,56.40
2019-03-27T13:37:30.906Z,56.20
2019-03-27T13:40:00.231Z,56.40
2019-03-27T13:42:42.443Z,58.90
2019-03-27T13:45:10.727Z,58.50
2019-03-27T13:47:44.153Z,58.50
2019-03-27T13:50:18.249Z,58.50
2019-03-27T13:52:46.495Z,58.50
2019-03-27T13:55:19.078Z,57.60
2019-03-27T13:58:12.541Z,57.10
2019-03-27T14:00:40.810Z,57.00
2019-03-27T14:03:09.540Z,56.80
2019-03-27T14:05:37.796Z,57.50
2019-03-27T14:08:17.064Z,56.70
2019-03-27T14:10:45.363Z,56.70
2019-03-27T14:13:15.432Z,57.10
2019-03-27T14:15:55.344Z,57.70
2019-03-27T14:18:26.013Z,57.60
2019-03-27T14:20:57.414Z,57.00
2019-03-27T14:23:25.678Z,57.20
2019-03-27T14:25:53.960Z,57.70
2019-03-27T14:28:24.895Z,57.90
2019-03-27T14:30:54.801Z,57.20
2019-03-27T14:33:27.848Z,56.60
2019-03-27T14:35:56.075Z,57.50
2019-03-27T14:38:24.624Z,57.20
2019-03-27T14:40:53.298Z,57.60
2019-03-27T14:43:21.945Z,57.90
2019-03-27T14:45:50.353Z,57.40
2019-03-27T14:48:38.187Z,57.20
2019-03-27T14:51:06.455Z,57.60
2019-03-27T14:53:35.069Z,58.00
2019-03-27T14:56:03.588Z,58.10
2019-03-27T14:58:33.523Z,57.70
2019-03-27T15:01:01.840Z,58.30
2019-03-27T15:03:30.672Z,58.30
2019-03-27T15:05:58.921Z,58.70
2019-03-27T15:08:27.233Z,58.00
2019-03-27T15:10:57.702Z,57.90
2019-03-27T15:13:25.946Z,57.80
2019-03-27T15:15:54.206Z,57.70
2019-03-27T15:18:22.961Z,58.70
2019-03-27T15:20:51.598Z,58.50
2019-03-27T15:23:19.843Z,59.70
2019-03-27T15:25:48.092Z,60.70
2019-03-27T15:28:16.336Z,60.20
2019-03-27T15:30:44.596Z,60.70
2019-03-27T15:33:12.824Z,61.20
2019-03-27T15:35:44.328Z,60.90
2019-03-27T15:38:11.034Z,59.90
2019-03-27T15:40:43.047Z,59.10
2019-03-27T15:43:12.929Z,59.60
2019-03-27T15:45:48.235Z,59.90
2019-03-27T15:48:35.934Z,59.90
2019-03-27T15:51:10.162Z,59.40
2019-03-27T15:53:41.242Z,59.40
2019-03-27T15:56:13.760Z,59.30
2019-03-27T15:58:42.851Z,60.70
2019-03-27T16:01:11.088Z,60.90
2019-03-27T16:03:39.322Z,61.00
2019-03-27T16:06:07.627Z,60.90
2019-03-27T16:08:35.857Z,61.20
2019-03-27T16:11:04.101Z,60.60
2019-03-27T16:13:32.378Z,60.50
2019-03-27T16:16:00.681Z,60.40
2019-03-27T16:18:28.907Z,60.20
2019-03-27T16:20:57.563Z,59.70
2019-03-27T16:23:25.812Z,59.70
2019-03-27T16:25:54.095Z,59.50
2019-03-27T16:28:24.061Z,58.70
2019-03-27T16:30:52.305Z,59.30
2019-03-27T16:33:20.855Z,60.70
2019-03-27T16:35:49.119Z,59.20
2019-03-27T16:38:17.387Z,59.20
2019-03-27T16:40:46.684Z,59.70
2019-03-27T16:43:14.965Z,59.00
2019-03-27T16:45:43.215Z,58.80
2019-03-27T16:48:11.857Z,59.10
2019-03-27T16:50:40.124Z,58.90
2019-03-27T16:53:08.378Z,59.20
2019-03-27T16:55:36.658Z,59.40
2019-03-27T16:58:05.095Z,59.20
2019-03-27T17:00:33.338Z,59.80
2019-03-27T17:03:01.597Z,59.10
2019-03-27T17:05:29.897Z,59.20
2019-03-27T17:07:59.767Z,58.40
2019-03-27T17:10:28.030Z,59.20
2019-03-27T17:12:56.299Z,59.50
2019-03-27T17:15:24.559Z,59.50
2019-03-27T17:17:52.802Z,59.20
2019-03-27T17:20:21.126Z,58.90
2019-03-27T17:22:51.000Z,59.20
2019-03-27T17:25:19.260Z,59.80
2019-03-27T17:27:47.654Z,59.40
2019-03-27T17:30:15.893Z,59.70
2019-03-27T17:32:44.145Z,60.00
2019-03-27T17:35:12.503Z,60.00
2019-03-27T17:37:40.800Z,59.70
2019-03-27T17:40:15.092Z,60.90
2019-03-27T17:42:42.368Z,61.00
2019-03-27T17:45:10.615Z,61.00
2019-03-27T17:47:38.851Z,61.20
2019-03-27T17:50:11.981Z,61.20
2019-03-27T17:52:40.228Z,61.80
2019-03-27T17:55:08.465Z,61.70
2019-03-27T17:57:37.350Z,61.60
2019-03-27T18:00:07.726Z,61.10
2019-03-27T18:02:35.974Z,61.50
2019-03-27T18:05:06.482Z,62.00
2019-03-27T18:07:37.540Z,62.30
2019-03-27T18:10:24.787Z,61.50
2019-03-27T18:12:56.131Z,61.90
2019-03-27T18:15:24.363Z,62.50
2019-03-27T18:17:52.612Z,62.20
2019-03-27T18:20:20.860Z,62.10
2019-03-27T18:22:49.453Z,62.30
2019-03-27T18:25:19.328Z,62.40
2019-03-27T18:27:47.598Z,61.80
2019-03-27T18:30:15.907Z,62.00
2019-03-27T18:32:44.150Z,61.90
2019-03-27T18:35:12.587Z,61.70
2019-03-27T18:37:40.867Z,61.80
2019-03-27T18:40:09.831Z,61.90
2019-03-27T18:42:45.212Z,62.00
2019-03-27T18:45:13.568Z,61.90
2019-03-27T18:47:41.856Z,61.90
2019-03-27T18:50:10.158Z,61.50
2019-03-27T18:52:38.768Z,61.40
2019-03-27T18:55:07.501Z,61.00
2019-03-27T18:57:35.787Z,61.20
2019-03-27T19:00:06.066Z,60.80
2019-03-27T19:02:34.353Z,60.70
2019-03-27T19:05:07.390Z,60.80
2019-03-27T19:07:35.642Z,60.80
2019-03-27T19:10:08.360Z,60.90
2019-03-27T19:12:36.899Z,60.40
2019-03-27T19:15:09.735Z,60.00
2019-03-27T19:17:37.980Z,60.40
2019-03-27T19:20:09.084Z,60.20
2019-03-27T19:22:37.342Z,60.10
2019-03-27T19:25:07.580Z,60.80
2019-03-27T19:27:35.943Z,60.10
2019-03-27T19:30:06.186Z,60.00
2019-03-27T19:32:34.507Z,59.90
2019-03-27T19:35:02.862Z,59.80
2019-03-27T19:37:31.109Z,59.80
2019-03-27T19:40:01.092Z,59.70
2019-03-27T19:42:31.320Z,60.20
2019-03-27T19:44:59.951Z,59.20
2019-03-27T19:47:28.603Z,59.20
2019-03-27T19:49:57.616Z,59.20
2019-03-27T19:52:26.309Z,59.10
2019-03-27T19:54:54.595Z,59.40
2019-03-27T19:57:24.230Z,59.30
2019-03-27T19:59:55.754Z,59.30
2019-03-27T20:02:27.955Z,59.00
2019-03-27T20:05:03.752Z,59.30
2019-03-27T20:07:36.191Z,59.50
2019-03-27T20:10:02.032Z,59.10
2019-03-27T20:12:30.592Z,58.40
2019-03-27T20:15:11.080Z,58.80
2019-03-27T20:17:32.673Z,58.90
2019-03-27T20:20:07.141Z,59.00
2019-03-27T20:22:34.027Z,59.00
2019-03-27T20:25:02.275Z,59.10
2019-03-27T20:27:30.551Z,58.70
2019-03-27T20:29:58.786Z,58.90
2019-03-27T20:32:28.673Z,58.40
2019-03-27T20:34:57.007Z,58.60
2019-03-27T20:37:25.259Z,59.00
2019-03-27T20:39:53.526Z,58.60
2019-03-27T20:42:21.800Z,58.60
2019-03-27T20:44:50.304Z,58.30
2019-03-27T20:47:18.840Z,59.10
2019-03-27T20:49:47.303Z,59.20
2019-03-27T20:52:16.082Z,58.70
2019-03-27T20:54:54.254Z,58.00
2019-03-27T20:57:14.401Z,58.60
2019-03-27T20:59:42.647Z,58.50
2019-03-27T21:02:10.907Z,58.20
2019-03-27T21:04:39.561Z,57.80
2019-03-27T21:07:08.252Z,57.50
2019-03-27T21:09:36.491Z,58.00
2019-03-27T21:12:05.402Z,58.40
2019-03-27T21:14:33.710Z,58.10
2019-03-27T21:17:01.947Z,58.10
2019-03-27T21:19:30.276Z,58.10
2019-03-27T21:22:02.123Z,58.10
2019-03-27T21:24:30.361Z,58.00
2019-03-27T21:26:58.596Z,57.90
2019-03-27T21:29:26.856Z,58.10
2019-03-27T21:31:55.111Z,57.90
2019-03-27T21:34:23.451Z,58.10
2019-03-27T21:36:51.704Z,58.20
2019-03-27T21:39:19.957Z,58.00
2019-03-27T21:41:48.266Z,57.90
2019-03-27T21:44:16.533Z,58.50
2019-03-27T21:46:44.784Z,58.60
2019-03-27T21:49:13.340Z,57.90
2019-03-27T21:51:46.421Z,57.90
2019-03-27T21:54:30.485Z,58.40
2019-03-27T21:57:10.334Z,58.00
2019-03-27T21:59:48.557Z,57.90
2019-03-27T22:02:19.868Z,58.40
2019-03-27T22:04:52.452Z,58.80
2019-03-27T22:07:20.795Z,58.90
2019-03-27T22:09:51.828Z,58.20
2019-03-27T22:12:20.071Z,57.90
2019-03-27T22:14:48.400Z,57.90
2019-03-27T22:17:16.638Z,58.00
2019-03-27T22:19:44.880Z,57.90
2019-03-27T22:22:13.160Z,57.90
2019-03-27T22:24:41.427Z,57.90
2019-03-27T22:27:09.678Z,58.20
2019-03-27T22:29:38.011Z,58.30
2019-03-27T22:32:06.247Z,58.10
2019-03-27T22:34:34.501Z,58.70
2019-03-27T22:37:02.778Z,58.00
2019-03-27T22:39:31.019Z,58.50
2019-03-27T22:41:59.260Z,58.10
2019-03-27T22:44:27.532Z,58.50
2019-03-27T22:46:55.777Z,57.90
2019-03-27T22:49:24.015Z,57.90
2019-03-27T22:51:52.768Z,57.90
2019-03-27T22:54:21.030Z,57.80
2019-03-27T22:56:49.262Z,58.00
2019-03-27T22:59:17.562Z,57.80
2019-03-27T23:01:46.902Z,57.90
2019-03-27T23:04:15.150Z,57.90
2019-03-27T23:06:43.420Z,57.50
2019-03-27T23:09:11.662Z,57.70
2019-03-27T23:11:39.926Z,57.80
2019-03-27T23:14:08.240Z,57.90
2019-03-27T23:16:36.485Z,57.80
2019-03-27T23:19:04.763Z,57.60
2019-03-27T23:21:33.070Z,57.70
2019-03-27T23:24:01.677Z,57.70
2019-03-27T23:26:29.919Z,57.80
2019-03-27T23:28:58.502Z,57.80
2019-03-27T23:31:27.081Z,57.70
2019-03-27T23:33:55.336Z,57.70
2019-03-27T23:36:23.597Z,57.80
2019-03-27T23:38:51.856Z,57.50
2019-03-27T23:41:20.181Z,57.40
2019-03-27T23:43:49.066Z,57.80
2019-03-27T23:46:17.356Z,57.90
2019-03-27T23:48:45.611Z,57.40
2019-03-27T23:51:14.245Z,57.10
2019-03-27T23:53:42.495Z,57.40
2019-03-27T23:56:30.221Z,57.20
2019-03-27T23:58:58.463Z,57.10
